Flight Track Log - Related Links

Times and Time Zones

All times are in EDT time to prevent confusion due to time zone crossing. See the SWA2130 flight status page for this flight to view local times or setup timezone preferences in your user account.

Time Position Orientation Groundspeed Altitude Reporting Facility
EDT Latitude Longitude Course Direction KTS MPH feet Rate Location/Type
Wed 10:59:20 PM 31.7939 -106.3097 100° East 183 211 6,000  Level Albuquerque Center
Wed 11:00:21 PM 31.7661 -106.2300 112° Southeast 284 327 8,000 2,508 Climbing Albuquerque Center
Wed 11:01:22 PM 31.6972 -106.1692 143° Southeast 312 359 11,100 3,344 Climbing Albuquerque Center
Wed 11:02:23 PM 31.6325 -106.0831 131° Southeast 352 405 14,800 3,492 Climbing Albuquerque Center
Wed 11:03:24 PM 31.5664 -105.9881 129° Southeast 374 430 18,200 3,171 Climbing Albuquerque Center
Wed 11:04:26 PM 31.5033 -105.8772 124° Southeast 408 470 21,300 3,024 Climbing Albuquerque Center
Wed 11:05:27 PM 31.4603 -105.7500 112° Southeast 427 491 24,400 3,246 Climbing Albuquerque Center
Wed 11:06:28 PM 31.4317 -105.5811 101° East 439 505 27,900 2,705 Climbing Albuquerque Center
Wed 11:07:29 PM 31.4058 -105.4353 102° East 454 522 29,900 1,820 Climbing Albuquerque Center
Wed 11:08:30 PM 31.3786 -105.2811 102° East 477 549 31,600 1,672 Climbing Albuquerque Center
Wed 11:09:31 PM 31.3514 -105.1217 101° East 491 565 33,300 2,000 Climbing Albuquerque Center
Wed 11:10:33 PM 31.3239 -104.9606 101° East 499 574 35,700 2,049 Climbing Albuquerque Center
Wed 11:11:34 PM 31.2956 -104.8036 102° East 493 567 37,500 1,525 Climbing Albuquerque Center
Wed 11:12:35 PM 31.2675 -104.6456 102° East 492 566 38,800 1,279 Climbing Albuquerque Center
Wed 11:13:36 PM 31.2386 -104.4858 102° East 498 573 40,100 1,082 Climbing Albuquerque Center
Wed 11:14:37 PM 31.2094 -104.3272 102° East 499 574 41,000 439 Climbing Albuquerque Center
Wed 11:15:39 PM 31.1792 -104.1639 102° East 509 586 41,000  Level Albuquerque Center
Wed 11:16:40 PM 31.1492 -104.0028 102° East 510 587 41,000  Level Albuquerque Center
Wed 11:17:41 PM 31.1181 -103.8408 103° East 510 587 41,000  Level Albuquerque Center
Wed 11:18:42 PM 31.0864 -103.6758 103° East 509 586 41,000  Level Albuquerque Center
Wed 11:19:44 PM 31.0553 -103.5156 103° East 508 585 41,000  Level Albuquerque Center
Wed 11:20:45 PM 31.0161 -103.3228 103° East 511 588 41,000  Level Albuquerque Center
Wed 11:21:46 PM 30.9864 -103.1631 102° East 508 585 41,000  Level Albuquerque Center
Wed 11:22:47 PM 30.9569 -103.0044 102° East 505 581 41,000  Level Albuquerque Center
Wed 11:23:49 PM 30.9183 -102.8486 106° East 505 581 41,000  Level Albuquerque Center
Wed 11:24:50 PM 30.8778 -102.6925 107° East 506 582 41,000  Level Albuquerque Center
Wed 11:25:51 PM 30.8378 -102.5364 107° East 508 585 41,000  Level Albuquerque Center
Wed 11:26:52 PM 30.7964 -102.3819 107° East 507 583 41,000  Level Albuquerque Center
Wed 11:27:54 PM 30.7481 -102.1964 107° East 505 581 41,000  Level Albuquerque Center
Wed 11:28:55 PM 30.7075 -102.0419 107° East 504 580 41,000  Level Albuquerque Center
Wed 11:29:56 PM 30.6661 -101.8883 107° East 503 579 41,000  Level Albuquerque Center
Wed 11:31:39 PM 30.6008 -101.6431 107° East 500 575 41,000  Level Houston Center
Wed 11:32:40 PM 30.5550 -101.4694 107° East 501 577 41,000  Level Houston Center
Wed 11:33:40 PM 30.5119 -101.3153 108° East 503 579 41,000  Level Houston Center
Wed 11:34:41 PM 30.4703 -101.1597 107° East 505 581 41,000  Level Houston Center
Wed 11:35:42 PM 30.4292 -101.0047 107° East 505 581 41,000  Level Houston Center
Wed 11:36:43 PM 30.3844 -100.8506 109° East 503 579 41,000 -1,339 Level Houston Center
Wed 11:37:43 PM 30.3419 -100.6944 107° East 507 583 38,300 -2,777 Descending Houston Center
Wed 11:38:44 PM 30.2986 -100.5383 108° East 509 586 35,400 -2,951 Descending Houston Center
Wed 11:39:45 PM 30.2553 -100.3808 108° East 511 588 32,300 -2,951 Descending Houston Center
Wed 11:40:46 PM 30.2128 -100.2269 108° East 496 571 29,400 -2,579 Descending Houston Center
Wed 11:41:46 PM 30.1711 -100.0778 108° East 482 555 27,100 -2,182 Descending Houston Center
Wed 11:42:47 PM 30.1314 -99.9389 108° East 458 527 25,000 -1,033 Descending Houston Center
Wed 11:43:48 PM 30.0958 -99.8158 108° East 404 465 25,000 -50 Level Houston Center
Wed 11:44:48 PM 30.0653 -99.7089 108° East 356 410 24,900 -1,835 Descending Houston Center
Wed 11:45:49 PM 30.0333 -99.5994 109° East 365 420 21,300 -3,541 Descending Houston Center
Wed 11:46:50 PM 29.9958 -99.4725 109° East 413 475 17,700 -2,926 Descending Houston Center
Wed 11:47:50 PM 29.9606 -99.3447 108° East 419 482 15,400 -2,132 Descending Houston Center
Wed 11:48:51 PM 29.9264 -99.2286 109° East 385 443 13,400 -2,035 Descending Houston Center
Wed 11:49:45 PM 29.8797 -99.1242 117° Southeast 350 403 11,500 -1,278 Descending Houston Center
Wed 11:50:39 PM 29.8411 -99.0419 118° Southeast 306 352 11,100 -1,031 Descending Houston Center
Wed 11:51:53 PM 29.7911 -98.9394 119° Southeast 293 337 9,300 -1,537 Descending Houston Center
Wed 11:52:40 PM 29.7597 -98.8806 122° Southeast 287 330 8,000 -1,500 Descending Houston Center
Wed 11:53:41 PM 29.7211 -98.8008 119° Southeast 283 326 6,600 -1,461 Descending Houston Center
Wed 11:54:35 PM 29.6875 -98.7303 119° Southeast 276 318 5,200 -1,562 Descending Houston Center
Wed 11:54:54 PM 29.6753 -98.7058 120° Southeast 277 319 4,700 -1,475 Descending Houston Center
Wed 11:55:36 PM 29.6517 -98.6575 119° Southeast 261 300 3,700 -1,279 Descending Houston Center
Wed 11:55:55 PM 29.6411 -98.6367 120° Southeast 255 293 3,400 -590 Descending Houston Center
Wed 11:56:37 PM 29.6208 -98.5964 120° Southeast 214 246 3,100 -393 Descending Houston Center
Wed 11:56:56 PM 29.6136 -98.5817 119° Southeast 202 232 3,000 -800 Descending Houston Center
Wed 11:57:37 PM 29.5961 -98.5561 128° Southeast 136 157 2,300 -900 Descending Houston Center
Wed 11:57:56 PM 29.5872 -98.5417 125° Southeast 151 174 2,100 -689 Descending Houston Center
Wed 11:58:38 PM 29.5700 -98.5206 133° Southeast 133 153 1,600 -689 Descending Houston Center
Wed 11:58:57 PM 29.5617 -98.5083 128° Southeast 142 163 1,400 -608 Descending Houston Center
Wed 11:59:57 PM 29.5394 -98.4789 131° Southeast 137 158 800 -600 Descending Houston Center
Thu 12:01:00 AM 29.5333 -98.4667 120° Southeast  Level FlightAware Approximate
Thu 12:08:00 AM 29.5340 -98.4691 120° Southeast  Level Estimated
Thu 12:09:00 AM 29.5333 -98.4667 120° Southeast  Level FlightAware Approximate
Thu 12:10:00 AM 29.5340 -98.4691 120° Southeast  Level Estimated

Login

Don't have an account? Register now (free) for customized features, flight alerts, and more!